Pinconning, Michigan
Current Conditions -  °F | °C
As of 1:31 AM on Friday 31 Oct 2014 (Local Time) from KIKW Reporting Station
Overcast Overcast  
Wind Chill: 43°   Ceiling: 3900
Heat Index: 43°   Visibility: 10mi
Dew Point: 38°   Wind: 3mph
Humidity: 81%   Direction: 220°SW
Pressure: 29.93"   Gusts: NA
Location:  43.85°N, 83.96°W
Report Text: KIKW 310531Z AUTO 22003KT 10SM BKN039 OVC047 06/03 A2993 RMK AO2 T00620031
Loading
Personal Weather Stations






























Interactive Weather Map
Tropical Storm Tracking
New forecast layout! Learn more

10-Day Weather Forecast

Advertisements
Track Severe Weather on mobile